Preston, Mississippi
Current Conditions -  °F | °C
As of 2:56 PM on Friday 24 Oct 2014 (Local Time) from KNMM Reporting Station
Clear Clear  
Wind Chill: 76°   Ceiling: Unl
Heat Index: 76°   Visibility: 10mi
Dew Point: 39°   Wind: 9mph
Humidity: 26%   Direction: 10°N
Pressure: 30.06"   Gusts: NA
Location:  32.88°N, 88.83°W
Report Text: KNMM 241956Z 01008KT 10SM CLR 24/04 A3006 RMK AO2 VIS 2 1/2 SOUTH SLP188 T02440039 $
Loading
Personal Weather Stations






























Interactive Weather Map
Tropical Storm Tracking
New forecast layout! Learn more

10-Day Weather Forecast

Advertisements
Track Severe Weather on mobile